Time;durP1;ratioP1;P1;durP2;ratioP2;P2;SDS_P1;SDS_P2;PMS_P1;PMS_P2;Temp;Humidity;BMP_temperature;BMP_pressure;BME280_temperature;BME280_humidity;BME280_pressure;Samples;Min_cycle;Max_cycle;Signal;HPM_P1;HPM_P2
2022/10/15 00:00:23;;;;;;;59.90;40.67;;;12.30;99.90;;;;;;5127399;27;20834;-81
2022/10/15 00:03:12;;;;;;;57.58;39.92;;;12.40;99.90;;;;;;5122867;27;20229;-82
2022/10/15 00:06:05;;;;;;;58.65;40.22;;;12.40;99.90;;;;;;5110983;27;20291;-83
2022/10/15 00:08:53;;;;;;;60.85;40.53;;;12.30;99.90;;;;;;5111091;27;20701;-81
2022/10/15 00:11:42;;;;;;;61.20;40.83;;;12.20;99.90;;;;;;5101602;27;20218;-80
2022/10/15 00:14:38;;;;;;;56.42;40.20;;;12.20;99.90;;;;;;5125850;27;20226;-80
2022/10/15 00:17:28;;;;;;;56.50;40.40;;;12.10;99.90;;;;;;5107701;27;20730;-81
2022/10/15 00:20:17;;;;;;;58.80;39.92;;;12.10;99.90;;;;;;5129614;27;20329;-81
2022/10/15 00:23:05;;;;;;;54.88;40.58;;;12.20;99.90;;;;;;5132577;27;20680;-80
2022/10/15 00:26:02;;;;;;;57.40;40.53;;;12.10;99.90;;;;;;5127069;27;20222;-81
2022/10/15 00:28:52;;;;;;;58.80;41.58;;;12.10;99.90;;;;;;5109935;27;20317;-81
2022/10/15 00:31:43;;;;;;;62.20;41.58;;;12.00;99.90;;;;;;5098558;27;20222;-82
2022/10/15 00:34:35;;;;;;;60.15;41.75;;;11.90;99.90;;;;;;5097510;27;20313;-81
2022/10/15 00:37:24;;;;;;;58.90;41.55;;;12.00;99.90;;;;;;5115354;27;20322;-82
2022/10/15 00:40:14;;;;;;;58.28;41.95;;;11.80;99.90;;;;;;5088747;28;20775;-81
2022/10/15 00:43:03;;;;;;;62.70;41.53;;;11.90;99.90;;;;;;5098620;27;20742;-82
2022/10/15 00:45:54;;;;;;;61.65;42.50;;;11.80;99.90;;;;;;5096980;27;20233;-82
2022/10/15 00:48:44;;;;;;;56.70;41.17;;;11.80;99.90;;;;;;5108574;27;20226;-82
2022/10/15 00:51:39;;;;;;;58.63;41.22;;;11.80;99.90;;;;;;5085467;27;20211;-82
2022/10/15 00:54:33;;;;;;;62.28;40.85;;;11.70;99.90;;;;;;5093506;28;20609;-80
2022/10/15 00:57:21;;;;;;;61.15;41.63;;;11.70;99.90;;;;;;5117003;27;20210;-80
2022/10/15 01:00:14;;;;;;;61.03;41.80;;;11.60;99.90;;;;;;5103085;27;20215;-81
2022/10/15 01:03:02;;;;;;;59.95;41.03;;;11.60;99.90;;;;;;5105059;27;20592;-82
2022/10/15 01:05:53;;;;;;;57.90;40.60;;;11.60;99.90;;;;;;5098168;27;20632;-82
2022/10/15 01:08:43;;;;;;;57.20;41.83;;;11.60;99.90;;;;;;5104642;27;20214;-82
2022/10/15 01:11:40;;;;;;;61.63;41.53;;;11.50;99.90;;;;;;5090752;28;20211;-82
2022/10/15 01:14:46;;;;;;;62.25;40.33;;;11.40;99.90;;;;;;5103433;27;20267;-81
2022/10/15 01:17:41;;;;;;;58.42;40.88;;;11.50;99.90;;;;;;5081986;28;20216;-81
2022/10/15 01:21:04;;;;;;;57.40;40.58;;;11.60;99.90;;;;;;5112918;27;20803;-82
2022/10/15 01:24:40;;;;;;;59.85;40.92;;;11.50;99.90;;;;;;5100706;28;20218;-83
2022/10/15 01:27:34;;;;;;;60.28;39.58;;;11.50;99.90;;;;;;5097037;27;20915;-82
2022/10/15 01:30:30;;;;;;;58.22;39.78;;;11.50;99.90;;;;;;5112499;27;20214;-82
2022/10/15 01:33:36;;;;;;;57.10;41.03;;;11.50;99.90;;;;;;5117120;27;20743;-82
2022/10/15 01:36:34;;;;;;;66.38;41.40;;;11.50;99.90;;;;;;5126078;27;20210;-82
2022/10/15 01:39:28;;;;;;;60.72;40.45;;;11.50;99.90;;;;;;5105560;27;20218;-82
2022/10/15 01:42:27;;;;;;;58.67;40.38;;;11.50;99.90;;;;;;5111279;27;20328;-82
2022/10/15 01:45:21;;;;;;;58.88;38.83;;;11.60;99.90;;;;;;5109480;27;20221;-82
2022/10/15 01:48:29;;;;;;;59.85;40.47;;;11.60;99.90;;;;;;5110496;27;20212;-78
2022/10/15 01:51:19;;;;;;;62.60;39.85;;;11.40;99.90;;;;;;5126328;27;20222;-79
2022/10/15 01:54:14;;;;;;;57.85;40.28;;;11.40;99.90;;;;;;5123740;27;20224;-79
2022/10/15 01:57:04;;;;;;;55.10;38.53;;;11.40;99.90;;;;;;5127614;27;20230;-81
2022/10/15 01:59:54;;;;;;;58.78;40.25;;;11.40;99.90;;;;;;5113078;27;20221;-83
2022/10/15 02:02:44;;;;;;;61.97;39.97;;;11.40;99.90;;;;;;5112229;27;20765;-82
2022/10/15 02:05:40;;;;;;;56.58;39.63;;;11.40;99.90;;;;;;5126578;27;20721;-82
2022/10/15 02:08:38;;;;;;;57.15;40.42;;;11.30;99.90;;;;;;5112754;27;20226;-80
2022/10/15 02:11:27;;;;;;;58.95;40.95;;;11.30;99.90;;;;;;5110425;27;20226;-76
2022/10/15 02:14:26;;;;;;;58.92;38.58;;;11.40;99.90;;;;;;5138437;27;20287;-77
2022/10/15 02:17:28;;;;;;;55.38;39.65;;;11.40;99.90;;;;;;5123886;27;20702;-78
2022/10/15 02:20:23;;;;;;;54.40;39.00;;;11.30;99.90;;;;;;5126625;27;20218;-79
2022/10/15 02:23:19;;;;;;;56.10;39.38;;;11.20;99.90;;;;;;5108871;27;20218;-79
2022/10/15 02:26:10;;;;;;;60.60;40.55;;;11.10;99.90;;;;;;5108752;27;20590;-79
2022/10/15 02:29:00;;;;;;;55.95;39.95;;;11.10;99.90;;;;;;5113588;27;20234;-79
2022/10/15 02:31:51;;;;;;;53.00;37.80;;;11.10;99.90;;;;;;5116582;27;20218;-80
2022/10/15 02:34:41;;;;;;;56.83;39.30;;;11.20;99.90;;;;;;5121450;27;20222;-80
2022/10/15 02:37:31;;;;;;;54.22;38.83;;;11.10;99.90;;;;;;5112840;27;20227;-79
2022/10/15 02:40:26;;;;;;;53.97;39.03;;;11.20;99.90;;;;;;5131135;27;20222;-79
2022/10/15 02:43:19;;;;;;;54.70;38.17;;;11.20;99.90;;;;;;5111545;27;20222;-79
2022/10/15 02:46:09;;;;;;;56.92;38.22;;;11.10;99.90;;;;;;5125240;27;20222;-79
2022/10/15 02:48:58;;;;;;;54.35;38.08;;;11.10;99.90;;;;;;5108913;27;20233;-80
2022/10/15 02:51:47;;;;;;;55.22;36.97;;;11.00;99.90;;;;;;5107045;27;20308;-79
2022/10/15 02:54:37;;;;;;;53.28;38.25;;;11.00;99.90;;;;;;5106612;27;20233;-80
2022/10/15 02:57:27;;;;;;;53.95;38.33;;;11.00;99.90;;;;;;5109082;27;20583;-81
2022/10/15 03:00:18;;;;;;;54.22;37.13;;;10.90;99.90;;;;;;5117995;27;20225;-81
2022/10/15 03:03:10;;;;;;;53.13;37.45;;;10.80;99.90;;;;;;5128336;27;20226;-80
2022/10/15 03:05:59;;;;;;;55.15;38.33;;;10.90;99.90;;;;;;5109017;27;20225;-80
2022/10/15 03:08:48;;;;;;;53.80;37.42;;;10.80;99.90;;;;;;5088049;27;20237;-81
2022/10/15 03:11:38;;;;;;;52.22;37.13;;;10.80;99.90;;;;;;5119541;27;20214;-83
2022/10/15 03:14:29;;;;;;;53.58;37.35;;;10.80;99.90;;;;;;5100619;27;20241;-81
2022/10/15 03:17:23;;;;;;;49.22;37.05;;;10.80;99.90;;;;;;5116593;27;20327;-82
2022/10/15 03:20:12;;;;;;;50.42;36.55;;;10.80;99.90;;;;;;5115660;27;20218;-82
2022/10/15 03:23:01;;;;;;;51.78;37.60;;;10.80;99.90;;;;;;5121983;27;20229;-83
2022/10/15 03:25:51;;;;;;;53.92;38.05;;;10.60;99.90;;;;;;5110984;27;20293;-83
2022/10/15 03:28:42;;;;;;;54.47;37.50;;;10.60;99.90;;;;;;5110750;28;20600;-83
2022/10/15 03:31:35;;;;;;;61.83;36.78;;;10.60;99.90;;;;;;5103796;27;20295;-82
2022/10/15 03:34:25;;;;;;;49.67;36.85;;;10.50;99.90;;;;;;5100676;27;20238;-83
2022/10/15 03:37:14;;;;;;;51.05;35.70;;;10.30;99.90;;;;;;5110191;27;20222;-83
2022/10/15 03:40:04;;;;;;;55.00;36.55;;;10.30;99.90;;;;;;5105575;28;20358;-82
2022/10/15 03:42:59;;;;;;;53.47;36.63;;;10.40;99.90;;;;;;5125064;27;20223;-83
2022/10/15 03:45:48;;;;;;;51.78;36.15;;;10.30;99.90;;;;;;5107726;27;20225;-83
2022/10/15 03:48:42;;;;;;;49.90;35.58;;;10.40;99.90;;;;;;5108914;27;20350;-80
2022/10/15 03:51:33;;;;;;;51.22;35.53;;;10.50;99.90;;;;;;5112755;27;20222;-79
2022/10/15 03:54:27;;;;;;;51.33;35.78;;;10.50;99.90;;;;;;5104425;27;20222;-79
2022/10/15 03:57:16;;;;;;;52.78;36.83;;;10.40;99.90;;;;;;5104806;27;20222;-80
2022/10/15 04:00:12;;;;;;;48.80;36.13;;;10.40;99.90;;;;;;5109243;28;20306;-78
2022/10/15 04:03:00;;;;;;;50.78;34.92;;;10.30;99.90;;;;;;5128786;27;20218;-80
2022/10/15 04:05:52;;;;;;;53.22;36.53;;;10.40;99.90;;;;;;5105042;28;20305;-80
2022/10/15 04:08:46;;;;;;;60.72;37.10;;;10.40;99.90;;;;;;5122695;27;20538;-80
2022/10/15 04:11:44;;;;;;;60.55;38.17;;;10.20;99.90;;;;;;5124954;28;20271;-80
2022/10/15 04:14:34;;;;;;;61.30;37.17;;;10.10;99.90;;;;;;5106301;27;20226;-80
2022/10/15 04:17:23;;;;;;;55.50;36.53;;;10.30;99.90;;;;;;5108552;27;20229;-80
2022/10/15 04:20:12;;;;;;;55.35;36.25;;;10.10;99.90;;;;;;5100249;28;20219;-80
2022/10/15 04:23:05;;;;;;;50.85;35.15;;;10.20;99.90;;;;;;5123290;27;20241;-81
2022/10/15 04:25:58;;;;;;;52.25;35.05;;;10.30;99.90;;;;;;5105408;27;20234;-81
2022/10/15 04:28:47;;;;;;;48.20;35.08;;;10.40;99.90;;;;;;5109178;28;20250;-81
2022/10/15 04:31:37;;;;;;;49.65;35.22;;;10.50;99.90;;;;;;5102826;28;20585;-81
2022/10/15 04:34:26;;;;;;;48.83;35.47;;;10.50;99.90;;;;;;5103823;27;20605;-80
2022/10/15 04:37:15;;;;;;;53.20;34.92;;;10.50;99.90;;;;;;5092712;27;20226;-79
2022/10/15 04:40:07;;;;;;;53.63;36.03;;;10.40;99.90;;;;;;5111284;28;20309;-78
2022/10/15 04:42:57;;;;;;;51.97;35.58;;;10.50;99.90;;;;;;5088489;28;20222;-81
2022/10/15 04:45:46;;;;;;;52.17;36.25;;;10.40;99.90;;;;;;5093700;28;20233;-81
2022/10/15 04:48:39;;;;;;;51.42;35.47;;;10.40;99.90;;;;;;5090536;27;20297;-81
2022/10/15 04:51:33;;;;;;;50.75;36.20;;;10.40;99.90;;;;;;5100437;28;20280;-81
2022/10/15 04:54:43;;;;;;;49.90;34.92;;;10.40;99.90;;;;;;5101218;27;20283;-80
2022/10/15 04:57:33;;;;;;;51.65;34.47;;;10.50;99.90;;;;;;5102301;28;20211;-80
2022/10/15 05:00:23;;;;;;;55.67;36.08;;;10.60;99.90;;;;;;5091308;27;20668;-80
2022/10/15 05:03:45;;;;;;;52.72;35.50;;;10.70;99.90;;;;;;5076657;27;20214;-80
2022/10/15 05:06:34;;;;;;;49.92;36.53;;;10.60;99.90;;;;;;5104934;27;20226;-80
2022/10/15 05:09:36;;;;;;;53.40;36.60;;;10.60;99.90;;;;;;5094848;27;20213;-81
2022/10/15 05:12:25;;;;;;;55.05;36.42;;;10.70;99.90;;;;;;5107916;28;20306;-80
2022/10/15 05:15:16;;;;;;;55.95;35.97;;;10.70;99.90;;;;;;5096896;27;20271;-80
2022/10/15 05:18:05;;;;;;;53.20;37.03;;;10.70;99.90;;;;;;5088049;28;20276;-80
2022/10/15 05:21:03;;;;;;;50.80;35.63;;;10.70;99.90;;;;;;5085387;27;20219;-82
2022/10/15 05:23:52;;;;;;;55.00;36.80;;;10.70;99.90;;;;;;5084625;28;20233;-79
2022/10/15 05:27:00;;;;;;;50.40;35.47;;;10.60;99.90;;;;;;5083892;27;20222;-80
2022/10/15 05:29:53;;;;;;;56.67;38.00;;;10.60;99.90;;;;;;5109905;27;20280;-82
2022/10/15 05:32:43;;;;;;;53.65;37.83;;;10.60;99.90;;;;;;5126231;27;20217;-82
2022/10/15 05:35:37;;;;;;;56.83;37.03;;;10.60;99.90;;;;;;5112549;27;20245;-86
2022/10/15 05:38:26;;;;;;;54.97;36.40;;;10.60;99.90;;;;;;5126011;27;20226;-83
2022/10/15 05:41:15;;;;;;;55.38;37.13;;;10.70;99.90;;;;;;5110223;27;20363;-85
2022/10/15 05:44:04;;;;;;;55.65;37.58;;;10.80;99.90;;;;;;5123239;27;20236;-81
2022/10/15 05:46:53;;;;;;;52.83;36.33;;;10.80;99.90;;;;;;5113644;27;20229;-79
2022/10/15 05:49:45;;;;;;;53.22;37.50;;;10.90;99.90;;;;;;5110587;27;21038;-86
2022/10/15 05:52:40;;;;;;;58.70;37.35;;;11.10;99.90;;;;;;5109055;27;20248;-82
2022/10/15 05:55:52;;;;;;;50.90;34.72;;;11.10;99.90;;;;;;5130202;27;20231;-95
2022/10/15 05:58:41;;;;;;;51.50;35.38;;;11.10;99.90;;;;;;5140786;27;20692;-94
2022/10/15 06:01:30;;;;;;;48.85;35.25;;;11.10;99.90;;;;;;5133032;27;20245;-80
2022/10/15 06:04:18;;;;;;;56.13;36.85;;;11.20;99.90;;;;;;5129371;27;20595;-82
2022/10/15 06:07:09;;;;;;;53.25;36.80;;;11.30;99.90;;;;;;5102748;27;20213;-83
2022/10/15 06:09:57;;;;;;;52.90;36.58;;;11.30;99.90;;;;;;5107685;27;20218;-82
2022/10/15 06:12:50;;;;;;;56.30;38.10;;;11.40;99.90;;;;;;5126912;27;20252;-88
2022/10/15 06:15:40;;;;;;;56.20;37.28;;;11.40;99.90;;;;;;5124222;27;20215;-85
2022/10/15 06:18:34;;;;;;;56.53;37.90;;;11.60;99.90;;;;;;5113338;27;20210;-82
2022/10/15 06:21:23;;;;;;;49.88;36.75;;;11.70;99.90;;;;;;5112133;27;20325;-80
2022/10/15 06:24:13;;;;;;;51.70;38.10;;;11.70;99.90;;;;;;5103587;27;20226;-80
2022/10/15 06:27:02;;;;;;;60.13;38.15;;;11.70;99.90;;;;;;5119495;27;20633;-80
2022/10/15 06:29:50;;;;;;;52.05;36.42;;;11.80;99.90;;;;;;5096396;27;20284;-81
2022/10/15 06:32:39;;;;;;;53.25;37.28;;;11.80;99.90;;;;;;5100294;27;20250;-81
2022/10/15 06:35:29;;;;;;;54.80;36.17;;;12.00;99.90;;;;;;5101626;27;20227;-76
2022/10/15 06:38:18;;;;;;;66.25;37.00;;;12.10;99.90;;;;;;5103252;27;20302;-80
2022/10/15 06:41:08;;;;;;;58.50;36.17;;;12.20;99.90;;;;;;5086747;28;20215;-80
2022/10/15 06:43:57;;;;;;;56.65;36.72;;;12.30;99.90;;;;;;5086398;28;20230;-80
2022/10/15 06:46:46;;;;;;;52.53;36.97;;;12.30;99.90;;;;;;5096961;27;20612;-80
2022/10/15 06:49:34;;;;;;;50.25;35.92;;;12.30;99.90;;;;;;5099359;27;20215;-81
2022/10/15 06:52:24;;;;;;;51.30;37.50;;;12.30;99.90;;;;;;5089441;28;20227;-80
2022/10/15 06:55:12;;;;;;;51.88;36.63;;;12.30;99.90;;;;;;5086848;27;20228;-80
2022/10/15 06:58:03;;;;;;;53.03;35.33;;;12.30;99.90;;;;;;5104082;27;20808;-83
2022/10/15 07:00:52;;;;;;;48.80;34.67;;;12.40;99.90;;;;;;5099533;28;20229;-83
2022/10/15 07:03:41;;;;;;;52.72;35.67;;;12.40;99.90;;;;;;5100531;27;20218;-81
2022/10/15 07:06:30;;;;;;;51.50;33.33;;;12.40;99.90;;;;;;5098780;27;20225;-81
2022/10/15 07:09:19;;;;;;;49.67;34.97;;;12.40;99.90;;;;;;5103824;27;20214;-82
2022/10/15 07:12:08;;;;;;;46.03;33.72;;;12.50;99.90;;;;;;5087305;28;20555;-80
2022/10/15 07:14:58;;;;;;;50.08;34.70;;;12.60;99.90;;;;;;5091440;27;20222;-77
2022/10/15 07:17:48;;;;;;;46.10;33.25;;;12.60;99.90;;;;;;5078061;28;20232;-78
2022/10/15 07:20:37;;;;;;;48.28;33.40;;;12.60;99.90;;;;;;5079654;28;20237;-77
2022/10/15 07:23:26;;;;;;;46.28;33.33;;;12.70;99.90;;;;;;5096091;28;20226;-78
2022/10/15 07:26:15;;;;;;;45.58;31.02;;;12.80;99.90;;;;;;5098425;28;20382;-79
2022/10/15 07:29:04;;;;;;;41.90;30.30;;;12.80;99.90;;;;;;5117322;27;20226;-80
2022/10/15 19:25:50;;;;;;;33.38;24.60;;;15.90;99.90;;;;;;5099355;27;20553;-78
2022/10/15 19:28:39;;;;;;;30.33;22.90;;;15.90;99.90;;;;;;5091604;28;20252;-78
2022/10/15 19:31:29;;;;;;;33.38;23.45;;;15.90;99.90;;;;;;5095707;28;20857;-79
2022/10/15 19:34:18;;;;;;;29.23;22.73;;;15.80;99.90;;;;;;5094062;28;20590;-78
2022/10/15 19:37:07;;;;;;;33.63;23.92;;;15.90;99.90;;;;;;5072778;28;20218;-80
2022/10/15 19:40:09;;;;;;;31.20;22.80;;;15.90;99.90;;;;;;5089117;28;20222;-78
2022/10/15 19:42:59;;;;;;;33.10;23.98;;;15.90;99.90;;;;;;5097297;28;20356;-76
2022/10/15 19:45:53;;;;;;;31.80;24.23;;;15.90;99.90;;;;;;5100029;28;20333;-77
2022/10/15 19:48:43;;;;;;;32.15;24.02;;;15.90;99.90;;;;;;5085026;28;20223;-77
2022/10/15 19:51:32;;;;;;;35.88;24.20;;;16.00;99.90;;;;;;5096793;28;20218;-78
2022/10/15 19:54:21;;;;;;;30.75;22.75;;;15.90;99.90;;;;;;5096127;28;20211;-78
2022/10/15 19:57:10;;;;;;;31.02;23.25;;;15.90;99.90;;;;;;5082540;28;20219;-78
2022/10/15 20:00:02;;;;;;;35.25;24.30;;;15.90;99.90;;;;;;5081737;28;20722;-79
2022/10/15 20:03:00;;;;;;;27.70;22.58;;;15.90;99.90;;;;;;5117831;27;20315;-79
2022/10/15 20:05:49;;;;;;;31.45;23.58;;;15.90;99.90;;;;;;5116664;27;20238;-79
2022/10/15 20:08:38;;;;;;;32.72;23.77;;;15.90;99.90;;;;;;5109146;27;20325;-78
2022/10/15 20:11:27;;;;;;;31.38;23.77;;;15.90;99.90;;;;;;5101947;27;20308;-80
2022/10/15 20:14:16;;;;;;;33.35;23.23;;;15.80;99.90;;;;;;5118650;27;20305;-78
2022/10/15 20:17:06;;;;;;;33.95;23.77;;;15.80;99.90;;;;;;5101924;27;20581;-80
2022/10/15 20:19:55;;;;;;;29.73;22.58;;;15.80;99.90;;;;;;5117224;27;20227;-78
2022/10/15 20:22:44;;;;;;;32.40;22.77;;;15.70;99.90;;;;;;5107039;27;20249;-77
2022/10/15 20:25:33;;;;;;;31.45;23.35;;;15.80;99.90;;;;;;5116023;27;20246;-78
2022/10/15 20:28:22;;;;;;;29.30;22.27;;;15.70;99.90;;;;;;5121140;27;20218;-78
2022/10/15 20:31:13;;;;;;;32.25;23.35;;;15.80;99.90;;;;;;5103647;28;20218;-76
2022/10/15 20:34:03;;;;;;;31.85;22.38;;;15.70;99.90;;;;;;5118813;27;20218;-74
2022/10/15 20:36:52;;;;;;;32.45;23.42;;;15.70;99.90;;;;;;5096103;28;20222;-78
2022/10/15 20:39:45;;;;;;;30.60;22.52;;;15.70;99.90;;;;;;5098190;28;20720;-78
2022/10/15 20:42:36;;;;;;;29.70;22.65;;;15.70;99.90;;;;;;5084708;28;20223;-77
2022/10/15 20:45:27;;;;;;;30.00;22.83;;;15.70;99.90;;;;;;5102671;27;20254;-77
2022/10/15 20:48:20;;;;;;;30.77;21.70;;;15.70;99.90;;;;;;5103449;28;20606;-77
2022/10/15 20:51:12;;;;;;;28.50;21.60;;;15.70;99.90;;;;;;5090863;28;20214;-78
2022/10/15 20:54:02;;;;;;;28.27;21.38;;;15.70;99.90;;;;;;5090716;27;20325;-76
2022/10/15 20:56:51;;;;;;;29.55;21.52;;;15.70;99.90;;;;;;5102426;28;20296;-78
2022/10/15 20:59:40;;;;;;;27.83;20.38;;;15.70;99.90;;;;;;5096655;28;20229;-81
2022/10/15 21:02:29;;;;;;;25.23;20.10;;;15.70;99.90;;;;;;5088662;28;20229;-76
2022/10/15 21:05:18;;;;;;;25.33;19.52;;;15.70;99.90;;;;;;5102080;28;20225;-76
2022/10/15 21:08:11;;;;;;;26.55;19.05;;;15.70;99.90;;;;;;5089639;28;20297;-78
2022/10/15 21:11:03;;;;;;;27.65;18.70;;;15.70;99.90;;;;;;5101074;27;20226;-76
2022/10/15 21:13:52;;;;;;;28.27;19.48;;;15.70;99.90;;;;;;5092722;28;20233;-79
2022/10/15 21:16:41;;;;;;;27.40;18.33;;;15.70;99.90;;;;;;5096850;28;20913;-77
2022/10/15 21:19:31;;;;;;;23.98;18.20;;;15.70;99.90;;;;;;5092496;28;20215;-77
2022/10/15 21:22:20;;;;;;;25.80;17.88;;;15.70;99.90;;;;;;5089213;28;20222;-78
2022/10/15 21:25:11;;;;;;;22.60;16.98;;;15.70;99.90;;;;;;5088648;28;20589;-78
2022/10/15 21:27:59;;;;;;;24.90;17.33;;;15.80;99.90;;;;;;5103684;28;20226;-77
2022/10/15 21:30:48;;;;;;;27.88;17.63;;;15.70;99.90;;;;;;5072368;27;20233;-76
2022/10/15 21:33:36;;;;;;;24.63;18.40;;;15.70;99.90;;;;;;5089806;28;20218;-78
2022/10/15 21:36:27;;;;;;;22.08;16.88;;;15.60;99.90;;;;;;5092331;28;20250;-79
2022/10/15 21:39:17;;;;;;;25.60;17.67;;;15.70;99.90;;;;;;5090771;27;20262;-78
2022/10/15 21:42:07;;;;;;;22.27;16.80;;;15.70;99.90;;;;;;5092036;27;20237;-78
2022/10/15 21:44:56;;;;;;;21.15;16.52;;;15.70;99.90;;;;;;5100168;27;20276;-79
2022/10/15 21:47:45;;;;;;;21.90;16.60;;;15.70;99.90;;;;;;5101148;28;20215;-78
2022/10/15 21:50:34;;;;;;;22.13;16.38;;;15.70;99.90;;;;;;5109188;27;20251;-78
2022/10/15 21:53:23;;;;;;;26.00;16.65;;;15.70;99.90;;;;;;5103047;28;21085;-77
2022/10/15 21:56:12;;;;;;;21.20;16.52;;;15.70;99.90;;;;;;5087300;28;20610;-75
2022/10/15 21:59:02;;;;;;;23.15;17.08;;;15.70;99.90;;;;;;5109553;27;20226;-75
2022/10/15 22:01:51;;;;;;;23.25;16.30;;;15.70;99.90;;;;;;5104704;27;20233;-76
2022/10/15 22:04:39;;;;;;;20.77;15.55;;;15.70;99.90;;;;;;5101766;28;20315;-77
2022/10/15 22:07:28;;;;;;;20.48;15.50;;;15.70;99.90;;;;;;5090810;28;20211;-76
2022/10/15 22:10:17;;;;;;;20.65;14.95;;;15.70;99.90;;;;;;5089515;27;20222;-75
2022/10/15 22:13:06;;;;;;;19.88;14.63;;;15.70;99.90;;;;;;5090022;28;20223;-76
2022/10/15 22:15:59;;;;;;;23.08;14.98;;;15.70;99.90;;;;;;5087155;27;20230;-77
2022/10/15 22:18:48;;;;;;;22.08;14.95;;;15.70;99.90;;;;;;5087613;27;20222;-76
2022/10/15 22:21:38;;;;;;;20.40;14.80;;;15.70;99.90;;;;;;5105128;27;20237;-76
2022/10/15 22:24:28;;;;;;;21.10;15.25;;;15.70;99.90;;;;;;5102150;27;20226;-76
2022/10/15 22:27:17;;;;;;;22.25;15.52;;;15.70;99.90;;;;;;5088251;28;20215;-73
2022/10/15 22:30:07;;;;;;;20.92;14.93;;;15.70;99.90;;;;;;5105850;28;20213;-77
2022/10/15 22:32:57;;;;;;;21.50;15.43;;;15.70;99.90;;;;;;5103045;27;20226;-75
2022/10/15 22:35:46;;;;;;;21.48;15.07;;;15.80;99.90;;;;;;5090162;28;20266;-75
2022/10/15 22:38:34;;;;;;;19.58;14.45;;;15.80;99.90;;;;;;5100832;28;20227;-76
2022/10/15 22:41:23;;;;;;;19.77;14.90;;;15.80;99.90;;;;;;5084802;28;20227;-76
2022/10/15 22:44:15;;;;;;;22.20;15.20;;;15.80;99.90;;;;;;5087072;28;20250;-76
2022/10/15 22:47:04;;;;;;;19.85;14.80;;;15.70;99.90;;;;;;5084092;28;20245;-77
2022/10/15 22:49:54;;;;;;;23.02;15.07;;;15.80;99.90;;;;;;5104679;27;20234;-77
2022/10/15 22:52:43;;;;;;;23.20;15.88;;;15.80;99.90;;;;;;5098185;28;20214;-77
2022/10/15 22:55:32;;;;;;;24.88;16.10;;;15.80;99.90;;;;;;5098370;28;20714;-77
2022/10/15 22:58:20;;;;;;;22.42;16.42;;;15.70;99.90;;;;;;5099046;27;20223;-78
2022/10/15 23:01:11;;;;;;;22.77;15.48;;;15.70;99.90;;;;;;5087697;28;20223;-79
2022/10/15 23:04:02;;;;;;;22.98;16.10;;;15.70;99.90;;;;;;5100335;27;20219;-78
2022/10/15 23:06:52;;;;;;;19.63;15.23;;;15.70;99.90;;;;;;5084430;28;20227;-78
2022/10/15 23:09:40;;;;;;;20.90;14.75;;;15.70;99.90;;;;;;5087756;27;20219;-77
2022/10/15 23:12:29;;;;;;;21.20;15.18;;;15.60;99.90;;;;;;5085868;28;20300;-77
2022/10/15 23:15:18;;;;;;;22.98;15.70;;;15.70;99.90;;;;;;5097802;28;20304;-78
2022/10/15 23:18:07;;;;;;;23.63;15.98;;;15.60;99.90;;;;;;5096491;28;20697;-78
2022/10/15 23:20:55;;;;;;;25.38;15.02;;;15.60;99.90;;;;;;5100777;28;20226;-77
2022/10/15 23:23:46;;;;;;;19.58;14.88;;;15.60;99.90;;;;;;5101649;28;20601;-78
2022/10/15 23:26:36;;;;;;;19.85;14.98;;;15.60;99.90;;;;;;5087636;28;20234;-77
2022/10/15 23:29:26;;;;;;;19.60;15.80;;;15.60;99.90;;;;;;5102598;28;20222;-78
2022/10/15 23:32:15;;;;;;;20.55;15.05;;;15.50;99.90;;;;;;5099126;28;20238;-77
2022/10/15 23:35:06;;;;;;;21.05;14.43;;;15.50;99.90;;;;;;5098243;28;20225;-78
2022/10/15 23:37:55;;;;;;;21.92;14.57;;;15.50;99.90;;;;;;5085116;28;20222;-77
2022/10/15 23:40:45;;;;;;;23.67;15.10;;;15.60;99.90;;;;;;5091085;28;20224;-77
2022/10/15 23:43:34;;;;;;;22.95;14.43;;;15.60;99.90;;;;;;5104811;28;20237;-79
2022/10/15 23:46:23;;;;;;;22.75;13.82;;;15.60;99.90;;;;;;5099824;28;20223;-79
2022/10/15 23:49:12;;;;;;;18.13;13.98;;;15.60;99.90;;;;;;5098243;28;20211;-76
2022/10/15 23:52:02;;;;;;;18.13;13.35;;;15.60;99.90;;;;;;5085337;28;20224;-76
2022/10/15 23:54:50;;;;;;;19.48;14.23;;;15.70;99.90;;;;;;5086999;28;20230;-76
2022/10/15 23:57:40;;;;;;;19.38;13.20;;;15.70;99.90;;;;;;5098247;28;20934;-76
